sensor_id;sensor_type;location;lat;lon;timestamp;P1;durP1;ratioP1;P2;durP2;ratioP2
5217;SDS011;26539;51.064;6.346;2023-02-07T00:01:21;24.25;;;10.90;;
5217;SDS011;26539;51.064;6.346;2023-02-07T00:03:47;32.20;;;10.98;;
5217;SDS011;26539;51.064;6.346;2023-02-07T00:06:26;21.20;;;10.60;;
5217;SDS011;26539;51.064;6.346;2023-02-07T00:08:57;40.25;;;13.02;;
5217;SDS011;26539;51.064;6.346;2023-02-07T00:11:23;34.58;;;10.93;;
5217;SDS011;26539;51.064;6.346;2023-02-07T00:13:50;28.00;;;10.30;;
5217;SDS011;26539;51.064;6.346;2023-02-07T00:16:24;34.00;;;10.75;;
5217;SDS011;26539;51.064;6.346;2023-02-07T00:19:01;25.60;;;10.38;;
5217;SDS011;26539;51.064;6.346;2023-02-07T00:21:27;27.25;;;8.98;;
5217;SDS011;26539;51.064;6.346;2023-02-07T00:24:11;25.75;;;10.15;;
5217;SDS011;26539;51.064;6.346;2023-02-07T00:26:38;20.15;;;9.50;;
5217;SDS011;26539;51.064;6.346;2023-02-07T00:29:07;25.50;;;9.88;;
5217;SDS011;26539;51.064;6.346;2023-02-07T00:31:37;23.02;;;9.32;;
5217;SDS011;26539;51.064;6.346;2023-02-07T00:34:05;28.85;;;9.70;;
5217;SDS011;26539;51.064;6.346;2023-02-07T00:36:37;30.05;;;11.15;;
5217;SDS011;26539;51.064;6.346;2023-02-07T00:39:20;30.85;;;9.38;;
5217;SDS011;26539;51.064;6.346;2023-02-07T00:41:46;28.33;;;9.60;;
5217;SDS011;26539;51.064;6.346;2023-02-07T00:44:12;28.77;;;9.90;;
5217;SDS011;26539;51.064;6.346;2023-02-07T00:46:37;25.03;;;10.50;;
5217;SDS011;26539;51.064;6.346;2023-02-07T00:49:06;24.20;;;8.53;;
5217;SDS011;26539;51.064;6.346;2023-02-07T00:51:32;25.52;;;10.45;;
5217;SDS011;26539;51.064;6.346;2023-02-07T00:54:08;27.27;;;9.38;;
5217;SDS011;26539;51.064;6.346;2023-02-07T00:56:34;18.50;;;10.00;;
5217;SDS011;26539;51.064;6.346;2023-02-07T00:59:02;23.48;;;10.35;;
5217;SDS011;26539;51.064;6.346;2023-02-07T01:01:31;29.95;;;9.60;;
5217;SDS011;26539;51.064;6.346;2023-02-07T01:03:57;21.33;;;9.70;;
5217;SDS011;26539;51.064;6.346;2023-02-07T01:06:26;26.15;;;9.70;;
5217;SDS011;26539;51.064;6.346;2023-02-07T01:08:58;25.67;;;9.60;;
5217;SDS011;26539;51.064;6.346;2023-02-07T01:11:25;24.15;;;10.75;;
5217;SDS011;26539;51.064;6.346;2023-02-07T01:13:54;25.45;;;9.80;;
5217;SDS011;26539;51.064;6.346;2023-02-07T01:16:23;37.08;;;10.25;;
5217;SDS011;26539;51.064;6.346;2023-02-07T01:18:55;22.98;;;8.27;;
5217;SDS011;26539;51.064;6.346;2023-02-07T01:21:22;25.20;;;9.60;;
5217;SDS011;26539;51.064;6.346;2023-02-07T01:23:49;18.27;;;8.32;;
5217;SDS011;26539;51.064;6.346;2023-02-07T01:26:15;20.83;;;9.03;;
5217;SDS011;26539;51.064;6.346;2023-02-07T01:28:40;16.50;;;9.10;;
5217;SDS011;26539;51.064;6.346;2023-02-07T01:31:10;15.23;;;7.67;;
5217;SDS011;26539;51.064;6.346;2023-02-07T01:33:37;18.25;;;7.40;;
5217;SDS011;26539;51.064;6.346;2023-02-07T01:36:10;14.83;;;7.33;;
5217;SDS011;26539;51.064;6.346;2023-02-07T01:38:38;25.17;;;10.90;;
5217;SDS011;26539;51.064;6.346;2023-02-07T01:41:04;19.10;;;9.70;;
5217;SDS011;26539;51.064;6.346;2023-02-07T01:43:30;19.53;;;8.73;;
5217;SDS011;26539;51.064;6.346;2023-02-07T01:45:56;16.13;;;8.52;;
5217;SDS011;26539;51.064;6.346;2023-02-07T01:48:32;13.67;;;6.57;;
5217;SDS011;26539;51.064;6.346;2023-02-07T01:51:02;15.35;;;7.75;;
5217;SDS011;26539;51.064;6.346;2023-02-07T01:53:30;12.65;;;7.15;;
5217;SDS011;26539;51.064;6.346;2023-02-07T01:56:01;17.27;;;8.55;;
5217;SDS011;26539;51.064;6.346;2023-02-07T01:58:31;15.85;;;8.18;;
5217;SDS011;26539;51.064;6.346;2023-02-07T02:00:58;18.02;;;8.10;;
5217;SDS011;26539;51.064;6.346;2023-02-07T02:03:27;13.73;;;7.65;;
5217;SDS011;26539;51.064;6.346;2023-02-07T02:06:02;17.55;;;9.07;;
5217;SDS011;26539;51.064;6.346;2023-02-07T02:08:31;20.10;;;9.60;;
5217;SDS011;26539;51.064;6.346;2023-02-07T02:13:55;15.48;;;8.40;;
5217;SDS011;26539;51.064;6.346;2023-02-07T02:16:36;16.65;;;7.35;;
5217;SDS011;26539;51.064;6.346;2023-02-07T02:24:58;15.98;;;7.85;;
5217;SDS011;26539;51.064;6.346;2023-02-07T02:36:11;12.20;;;7.28;;
5217;SDS011;26539;51.064;6.346;2023-02-07T02:41:32;15.05;;;7.85;;
5217;SDS011;26539;51.064;6.346;2023-02-07T02:44:28;18.30;;;7.57;;
5217;SDS011;26539;51.064;6.346;2023-02-07T02:46:59;16.90;;;8.60;;
5217;SDS011;26539;51.064;6.346;2023-02-07T02:49:31;20.92;;;8.27;;
5217;SDS011;26539;51.064;6.346;2023-02-07T02:52:18;19.40;;;8.32;;
5217;SDS011;26539;51.064;6.346;2023-02-07T02:54:50;14.93;;;8.73;;
5217;SDS011;26539;51.064;6.346;2023-02-07T03:16:33;15.95;;;8.15;;
5217;SDS011;26539;51.064;6.346;2023-02-07T03:22:09;18.67;;;8.60;;
5217;SDS011;26539;51.064;6.346;2023-02-07T03:24:40;15.27;;;7.60;;
5217;SDS011;26539;51.064;6.346;2023-02-07T03:27:19;14.90;;;9.20;;
5217;SDS011;26539;51.064;6.346;2023-02-07T03:48:55;15.30;;;8.45;;
5217;SDS011;26539;51.064;6.346;2023-02-07T03:51:49;19.70;;;10.63;;
5217;SDS011;26539;51.064;6.346;2023-02-07T03:54:36;14.75;;;7.90;;
5217;SDS011;26539;51.064;6.346;2023-02-07T03:57:43;20.30;;;8.15;;
5217;SDS011;26539;51.064;6.346;2023-02-07T04:00:18;21.88;;;9.65;;
5217;SDS011;26539;51.064;6.346;2023-02-07T04:02:44;19.90;;;8.17;;
5217;SDS011;26539;51.064;6.346;2023-02-07T04:05:10;15.37;;;7.87;;
5217;SDS011;26539;51.064;6.346;2023-02-07T04:07:35;24.17;;;7.90;;
5217;SDS011;26539;51.064;6.346;2023-02-07T04:10:02;12.87;;;7.50;;
5217;SDS011;26539;51.064;6.346;2023-02-07T04:12:31;16.10;;;7.00;;
5217;SDS011;26539;51.064;6.346;2023-02-07T04:14:58;16.30;;;8.13;;
5217;SDS011;26539;51.064;6.346;2023-02-07T04:17:24;19.65;;;9.27;;
5217;SDS011;26539;51.064;6.346;2023-02-07T04:22:19;17.83;;;9.25;;
5217;SDS011;26539;51.064;6.346;2023-02-07T04:24:44;14.10;;;8.90;;
5217;SDS011;26539;51.064;6.346;2023-02-07T04:27:10;15.57;;;8.10;;
5217;SDS011;26539;51.064;6.346;2023-02-07T04:29:36;11.47;;;7.60;;
5217;SDS011;26539;51.064;6.346;2023-02-07T04:32:04;15.40;;;8.70;;
5217;SDS011;26539;51.064;6.346;2023-02-07T04:34:30;19.70;;;9.30;;
5217;SDS011;26539;51.064;6.346;2023-02-07T04:36:55;16.73;;;8.40;;
5217;SDS011;26539;51.064;6.346;2023-02-07T04:39:21;15.90;;;8.57;;
5217;SDS011;26539;51.064;6.346;2023-02-07T04:41:47;14.77;;;8.97;;
5217;SDS011;26539;51.064;6.346;2023-02-07T04:44:13;11.00;;;7.77;;
5217;SDS011;26539;51.064;6.346;2023-02-07T04:46:38;15.60;;;8.63;;
5217;SDS011;26539;51.064;6.346;2023-02-07T04:49:04;23.13;;;7.97;;
5217;SDS011;26539;51.064;6.346;2023-02-07T04:51:29;16.70;;;8.13;;
5217;SDS011;26539;51.064;6.346;2023-02-07T04:53:55;13.07;;;6.90;;
5217;SDS011;26539;51.064;6.346;2023-02-07T04:56:21;15.43;;;8.00;;
5217;SDS011;26539;51.064;6.346;2023-02-07T04:58:47;14.43;;;8.50;;
5217;SDS011;26539;51.064;6.346;2023-02-07T05:01:13;35.43;;;14.00;;
5217;SDS011;26539;51.064;6.346;2023-02-07T05:03:39;16.37;;;8.67;;
5217;SDS011;26539;51.064;6.346;2023-02-07T05:06:05;14.77;;;7.30;;
5217;SDS011;26539;51.064;6.346;2023-02-07T05:08:34;23.20;;;8.55;;
5217;SDS011;26539;51.064;6.346;2023-02-07T05:11:00;16.92;;;8.10;;
5217;SDS011;26539;51.064;6.346;2023-02-07T05:13:31;19.15;;;7.82;;
5217;SDS011;26539;51.064;6.346;2023-02-07T05:15:57;14.87;;;8.10;;
5217;SDS011;26539;51.064;6.346;2023-02-07T05:18:22;20.67;;;9.23;;
5217;SDS011;26539;51.064;6.346;2023-02-07T05:20:48;21.00;;;8.60;;
5217;SDS011;26539;51.064;6.346;2023-02-07T05:23:16;15.80;;;8.00;;
5217;SDS011;26539;51.064;6.346;2023-02-07T05:25:51;21.30;;;7.60;;
5217;SDS011;26539;51.064;6.346;2023-02-07T05:28:16;18.80;;;10.20;;
5217;SDS011;26539;51.064;6.346;2023-02-07T05:30:42;16.53;;;8.77;;
5217;SDS011;26539;51.064;6.346;2023-02-07T05:33:08;19.07;;;9.13;;
5217;SDS011;26539;51.064;6.346;2023-02-07T05:35:36;16.83;;;9.85;;
5217;SDS011;26539;51.064;6.346;2023-02-07T05:38:05;29.83;;;11.35;;
5217;SDS011;26539;51.064;6.346;2023-02-07T05:40:33;25.00;;;10.52;;
5217;SDS011;26539;51.064;6.346;2023-02-07T05:42:59;25.58;;;11.10;;
5217;SDS011;26539;51.064;6.346;2023-02-07T05:45:25;19.33;;;10.50;;
5217;SDS011;26539;51.064;6.346;2023-02-07T05:47:50;17.07;;;10.30;;
5217;SDS011;26539;51.064;6.346;2023-02-07T05:50:16;23.80;;;10.50;;
5217;SDS011;26539;51.064;6.346;2023-02-07T05:52:49;22.63;;;10.80;;
5217;SDS011;26539;51.064;6.346;2023-02-07T05:55:15;18.73;;;9.68;;
5217;SDS011;26539;51.064;6.346;2023-02-07T05:57:41;24.30;;;9.17;;
5217;SDS011;26539;51.064;6.346;2023-02-07T06:00:16;21.70;;;9.27;;
5217;SDS011;26539;51.064;6.346;2023-02-07T06:02:54;21.92;;;9.52;;
5217;SDS011;26539;51.064;6.346;2023-02-07T06:05:20;23.33;;;9.50;;
5217;SDS011;26539;51.064;6.346;2023-02-07T06:07:46;22.02;;;10.13;;
5217;SDS011;26539;51.064;6.346;2023-02-07T06:10:12;30.83;;;9.67;;
5217;SDS011;26539;51.064;6.346;2023-02-07T06:12:38;39.50;;;11.80;;
5217;SDS011;26539;51.064;6.346;2023-02-07T06:15:04;22.73;;;11.30;;
5217;SDS011;26539;51.064;6.346;2023-02-07T06:17:33;24.90;;;9.02;;
5217;SDS011;26539;51.064;6.346;2023-02-07T06:19:59;22.17;;;9.70;;
5217;SDS011;26539;51.064;6.346;2023-02-07T06:22:24;20.40;;;9.47;;
5217;SDS011;26539;51.064;6.346;2023-02-07T06:24:50;19.10;;;9.70;;
5217;SDS011;26539;51.064;6.346;2023-02-07T06:27:16;21.20;;;9.80;;
5217;SDS011;26539;51.064;6.346;2023-02-07T06:29:41;19.47;;;10.13;;
5217;SDS011;26539;51.064;6.346;2023-02-07T06:32:07;24.40;;;11.90;;
5217;SDS011;26539;51.064;6.346;2023-02-07T06:34:32;24.10;;;11.57;;
5217;SDS011;26539;51.064;6.346;2023-02-07T06:36:58;22.47;;;11.90;;
5217;SDS011;26539;51.064;6.346;2023-02-07T06:39:24;19.13;;;11.53;;
5217;SDS011;26539;51.064;6.346;2023-02-07T06:41:49;27.40;;;11.17;;
5217;SDS011;26539;51.064;6.346;2023-02-07T06:44:15;20.17;;;10.20;;
5217;SDS011;26539;51.064;6.346;2023-02-07T06:46:40;21.57;;;10.73;;
5217;SDS011;26539;51.064;6.346;2023-02-07T06:49:06;23.63;;;11.10;;
5217;SDS011;26539;51.064;6.346;2023-02-07T06:51:32;17.60;;;9.83;;
5217;SDS011;26539;51.064;6.346;2023-02-07T06:53:57;18.70;;;9.77;;
5217;SDS011;26539;51.064;6.346;2023-02-07T06:56:25;26.55;;;10.25;;
5217;SDS011;26539;51.064;6.346;2023-02-07T06:58:50;18.97;;;12.03;;
5217;SDS011;26539;51.064;6.346;2023-02-07T07:01:16;16.03;;;9.87;;
5217;SDS011;26539;51.064;6.346;2023-02-07T07:03:44;25.83;;;8.98;;
5217;SDS011;26539;51.064;6.346;2023-02-07T07:06:10;15.55;;;9.50;;
5217;SDS011;26539;51.064;6.346;2023-02-07T07:08:36;14.80;;;9.30;;
5217;SDS011;26539;51.064;6.346;2023-02-07T07:11:01;19.33;;;9.30;;
5217;SDS011;26539;51.064;6.346;2023-02-07T07:13:27;24.37;;;11.83;;
5217;SDS011;26539;51.064;6.346;2023-02-07T07:15:52;20.33;;;11.07;;
5217;SDS011;26539;51.064;6.346;2023-02-07T07:18:21;18.80;;;11.70;;
5217;SDS011;26539;51.064;6.346;2023-02-07T07:20:53;19.40;;;10.07;;
5217;SDS011;26539;51.064;6.346;2023-02-07T07:23:22;17.35;;;9.93;;
5217;SDS011;26539;51.064;6.346;2023-02-07T07:25:48;11.77;;;9.13;;
5217;SDS011;26539;51.064;6.346;2023-02-07T07:28:18;13.02;;;8.45;;
5217;SDS011;26539;51.064;6.346;2023-02-07T07:30:44;18.53;;;9.63;;
5217;SDS011;26539;51.064;6.346;2023-02-07T07:33:09;15.40;;;9.67;;
5217;SDS011;26539;51.064;6.346;2023-02-07T07:35:35;19.23;;;9.53;;
5217;SDS011;26539;51.064;6.346;2023-02-07T07:38:01;18.93;;;8.40;;
5217;SDS011;26539;51.064;6.346;2023-02-07T07:40:26;21.13;;;8.33;;
5217;SDS011;26539;51.064;6.346;2023-02-07T07:42:52;17.00;;;8.53;;
5217;SDS011;26539;51.064;6.346;2023-02-07T07:45:17;12.10;;;7.73;;
5217;SDS011;26539;51.064;6.346;2023-02-07T07:47:44;12.63;;;8.37;;
5217;SDS011;26539;51.064;6.346;2023-02-07T07:50:09;16.00;;;7.97;;
5217;SDS011;26539;51.064;6.346;2023-02-07T07:52:35;14.43;;;8.40;;
5217;SDS011;26539;51.064;6.346;2023-02-07T07:55:00;18.30;;;8.87;;
5217;SDS011;26539;51.064;6.346;2023-02-07T07:57:26;15.10;;;9.97;;
5217;SDS011;26539;51.064;6.346;2023-02-07T07:59:55;13.43;;;9.23;;
5217;SDS011;26539;51.064;6.346;2023-02-07T08:02:21;15.97;;;10.17;;
5217;SDS011;26539;51.064;6.346;2023-02-07T08:04:48;14.37;;;8.40;;
5217;SDS011;26539;51.064;6.346;2023-02-07T08:07:14;12.70;;;7.70;;
5217;SDS011;26539;51.064;6.346;2023-02-07T08:09:40;11.40;;;7.43;;
5217;SDS011;26539;51.064;6.346;2023-02-07T08:12:06;15.93;;;8.90;;
5217;SDS011;26539;51.064;6.346;2023-02-07T08:14:32;11.83;;;8.70;;
5217;SDS011;26539;51.064;6.346;2023-02-07T08:16:58;10.10;;;7.83;;
5217;SDS011;26539;51.064;6.346;2023-02-07T08:19:23;13.00;;;8.43;;
5217;SDS011;26539;51.064;6.346;2023-02-07T08:21:49;16.90;;;8.63;;
5217;SDS011;26539;51.064;6.346;2023-02-07T08:24:14;12.20;;;7.77;;
5217;SDS011;26539;51.064;6.346;2023-02-07T08:26:40;11.47;;;7.93;;
5217;SDS011;26539;51.064;6.346;2023-02-07T08:29:05;14.73;;;8.20;;
5217;SDS011;26539;51.064;6.346;2023-02-07T08:31:31;12.00;;;7.77;;
5217;SDS011;26539;51.064;6.346;2023-02-07T08:33:57;17.83;;;8.17;;
5217;SDS011;26539;51.064;6.346;2023-02-07T08:36:22;10.40;;;6.93;;
5217;SDS011;26539;51.064;6.346;2023-02-07T08:38:49;10.93;;;8.10;;
5217;SDS011;26539;51.064;6.346;2023-02-07T08:41:15;13.50;;;8.40;;
5217;SDS011;26539;51.064;6.346;2023-02-07T08:43:40;10.77;;;7.77;;
5217;SDS011;26539;51.064;6.346;2023-02-07T08:46:06;16.50;;;7.30;;
5217;SDS011;26539;51.064;6.346;2023-02-07T08:48:32;10.27;;;6.93;;
5217;SDS011;26539;51.064;6.346;2023-02-07T08:51:06;11.63;;;6.87;;
5217;SDS011;26539;51.064;6.346;2023-02-07T08:53:40;8.37;;;6.07;;
5217;SDS011;26539;51.064;6.346;2023-02-07T08:56:11;9.10;;;6.67;;
5217;SDS011;26539;51.064;6.346;2023-02-07T08:58:36;22.03;;;8.40;;
5217;SDS011;26539;51.064;6.346;2023-02-07T09:01:03;9.60;;;6.67;;
5217;SDS011;26539;51.064;6.346;2023-02-07T09:03:31;14.60;;;6.80;;
5217;SDS011;26539;51.064;6.346;2023-02-07T09:05:57;8.20;;;6.63;;
5217;SDS011;26539;51.064;6.346;2023-02-07T09:08:23;8.47;;;6.07;;
5217;SDS011;26539;51.064;6.346;2023-02-07T09:10:49;9.57;;;6.13;;
5217;SDS011;26539;51.064;6.346;2023-02-07T09:13:17;11.57;;;5.70;;
5217;SDS011;26539;51.064;6.346;2023-02-07T09:15:47;8.00;;;5.40;;
5217;SDS011;26539;51.064;6.346;2023-02-07T09:18:23;6.47;;;5.40;;
5217;SDS011;26539;51.064;6.346;2023-02-07T09:20:54;5.50;;;4.97;;
5217;SDS011;26539;51.064;6.346;2023-02-07T09:23:20;7.60;;;6.00;;
5217;SDS011;26539;51.064;6.346;2023-02-07T09:25:46;6.30;;;5.70;;
5217;SDS011;26539;51.064;6.346;2023-02-07T09:28:14;7.33;;;5.00;;
5217;SDS011;26539;51.064;6.346;2023-02-07T09:30:43;5.97;;;5.40;;
5217;SDS011;26539;51.064;6.346;2023-02-07T09:33:10;6.93;;;6.23;;
5217;SDS011;26539;51.064;6.346;2023-02-07T09:35:38;5.73;;;5.03;;
5217;SDS011;26539;51.064;6.346;2023-02-07T09:38:05;5.90;;;5.30;;
5217;SDS011;26539;51.064;6.346;2023-02-07T09:40:33;6.90;;;5.60;;
5217;SDS011;26539;51.064;6.346;2023-02-07T09:45:31;5.40;;;4.90;;
5217;SDS011;26539;51.064;6.346;2023-02-07T09:48:06;6.53;;;5.33;;
5217;SDS011;26539;51.064;6.346;2023-02-07T09:50:44;5.60;;;5.10;;
5217;SDS011;26539;51.064;6.346;2023-02-07T09:53:15;8.43;;;5.60;;
5217;SDS011;26539;51.064;6.346;2023-02-07T09:56:00;9.00;;;5.93;;
5217;SDS011;26539;51.064;6.346;2023-02-07T09:58:43;7.10;;;6.27;;
5217;SDS011;26539;51.064;6.346;2023-02-07T10:01:17;6.67;;;6.07;;
5217;SDS011;26539;51.064;6.346;2023-02-07T10:03:58;6.10;;;5.50;;
5217;SDS011;26539;51.064;6.346;2023-02-07T10:06:40;5.87;;;5.27;;
5217;SDS011;26539;51.064;6.346;2023-02-07T10:09:12;6.90;;;6.20;;
5217;SDS011;26539;51.064;6.346;2023-02-07T10:28:47;7.10;;;5.60;;
5217;SDS011;26539;51.064;6.346;2023-02-07T10:31:29;11.97;;;7.73;;
5217;SDS011;26539;51.064;6.346;2023-02-07T10:34:02;8.10;;;5.50;;
5217;SDS011;26539;51.064;6.346;2023-02-07T10:36:35;7.93;;;6.70;;
5217;SDS011;26539;51.064;6.346;2023-02-07T10:39:30;9.90;;;6.43;;
5217;SDS011;26539;51.064;6.346;2023-02-07T10:42:01;7.43;;;6.30;;
5217;SDS011;26539;51.064;6.346;2023-02-07T10:44:26;11.37;;;6.97;;
5217;SDS011;26539;51.064;6.346;2023-02-07T10:46:56;8.27;;;6.77;;
5217;SDS011;26539;51.064;6.346;2023-02-07T10:49:25;7.20;;;6.50;;
5217;SDS011;26539;51.064;6.346;2023-02-07T10:51:57;7.70;;;6.07;;
5217;SDS011;26539;51.064;6.346;2023-02-07T10:54:26;7.93;;;6.38;;
5217;SDS011;26539;51.064;6.346;2023-02-07T10:56:57;7.88;;;5.65;;
5217;SDS011;26539;51.064;6.346;2023-02-07T10:59:56;7.63;;;6.13;;
5217;SDS011;26539;51.064;6.346;2023-02-07T11:04:58;6.35;;;5.60;;
5217;SDS011;26539;51.064;6.346;2023-02-07T11:07:25;6.97;;;5.50;;
5217;SDS011;26539;51.064;6.346;2023-02-07T11:10:08;6.17;;;5.07;;
5217;SDS011;26539;51.064;6.346;2023-02-07T11:12:45;7.13;;;5.10;;
5217;SDS011;26539;51.064;6.346;2023-02-07T11:15:16;8.67;;;5.87;;
5217;SDS011;26539;51.064;6.346;2023-02-07T11:17:47;6.50;;;5.80;;
5217;SDS011;26539;51.064;6.346;2023-02-07T11:20:23;8.20;;;6.63;;
5217;SDS011;26539;51.064;6.346;2023-02-07T11:22:57;8.20;;;6.30;;
5217;SDS011;26539;51.064;6.346;2023-02-07T11:25:56;10.47;;;6.70;;
5217;SDS011;26539;51.064;6.346;2023-02-07T11:30:54;9.93;;;6.67;;
5217;SDS011;26539;51.064;6.346;2023-02-07T11:33:27;7.03;;;6.30;;
5217;SDS011;26539;51.064;6.346;2023-02-07T11:38:58;9.03;;;6.90;;
5217;SDS011;26539;51.064;6.346;2023-02-07T11:41:26;9.23;;;7.43;;
5217;SDS011;26539;51.064;6.346;2023-02-07T11:43:55;8.43;;;7.50;;
5217;SDS011;26539;51.064;6.346;2023-02-07T11:46:33;9.47;;;8.33;;
5217;SDS011;26539;51.064;6.346;2023-02-07T11:49:06;10.20;;;8.30;;
5217;SDS011;26539;51.064;6.346;2023-02-07T11:51:49;11.63;;;8.40;;
5217;SDS011;26539;51.064;6.346;2023-02-07T11:54:16;10.77;;;7.30;;
5217;SDS011;26539;51.064;6.346;2023-02-07T11:56:43;8.03;;;7.00;;
5217;SDS011;26539;51.064;6.346;2023-02-07T11:59:23;8.87;;;7.30;;
5217;SDS011;26539;51.064;6.346;2023-02-07T12:01:57;9.47;;;7.37;;
5217;SDS011;26539;51.064;6.346;2023-02-07T12:04:29;12.80;;;7.83;;
5217;SDS011;26539;51.064;6.346;2023-02-07T12:12:18;14.13;;;7.60;;
5217;SDS011;26539;51.064;6.346;2023-02-07T12:14:53;10.33;;;7.47;;
5217;SDS011;26539;51.064;6.346;2023-02-07T12:17:26;8.63;;;7.73;;
5217;SDS011;26539;51.064;6.346;2023-02-07T12:19:58;10.23;;;7.40;;
5217;SDS011;26539;51.064;6.346;2023-02-07T12:22:46;9.13;;;6.90;;
5217;SDS011;26539;51.064;6.346;2023-02-07T12:25:37;8.07;;;7.10;;
5217;SDS011;26539;51.064;6.346;2023-02-07T12:28:18;9.60;;;7.03;;
5217;SDS011;26539;51.064;6.346;2023-02-07T12:30:58;10.87;;;7.57;;
5217;SDS011;26539;51.064;6.346;2023-02-07T12:36:11;7.83;;;6.40;;
5217;SDS011;26539;51.064;6.346;2023-02-07T12:41:32;8.47;;;7.27;;
5217;SDS011;26539;51.064;6.346;2023-02-07T12:46:50;14.53;;;8.90;;
5217;SDS011;26539;51.064;6.346;2023-02-07T12:49:57;11.87;;;7.77;;
5217;SDS011;26539;51.064;6.346;2023-02-07T12:57:30;11.37;;;8.37;;
5217;SDS011;26539;51.064;6.346;2023-02-07T13:08:15;9.23;;;7.17;;
5217;SDS011;26539;51.064;6.346;2023-02-07T13:11:16;9.73;;;7.83;;
5217;SDS011;26539;51.064;6.346;2023-02-07T13:13:58;10.00;;;7.30;;
5217;SDS011;26539;51.064;6.346;2023-02-07T13:22:14;8.20;;;6.60;;
5217;SDS011;26539;51.064;6.346;2023-02-07T13:25:00;9.83;;;6.97;;
5217;SDS011;26539;51.064;6.346;2023-02-07T13:27:31;9.90;;;6.40;;
5217;SDS011;26539;51.064;6.346;2023-02-07T13:30:00;11.80;;;7.60;;
5217;SDS011;26539;51.064;6.346;2023-02-07T13:32:26;15.70;;;7.30;;
5217;SDS011;26539;51.064;6.346;2023-02-07T13:35:06;11.20;;;7.60;;
5217;SDS011;26539;51.064;6.346;2023-02-07T13:37:57;11.93;;;7.83;;
5217;SDS011;26539;51.064;6.346;2023-02-07T13:40:52;9.40;;;7.50;;
5217;SDS011;26539;51.064;6.346;2023-02-07T13:56:55;20.73;;;7.40;;
5217;SDS011;26539;51.064;6.346;2023-02-07T13:59:41;10.87;;;6.60;;
5217;SDS011;26539;51.064;6.346;2023-02-07T14:02:13;12.70;;;8.27;;
5217;SDS011;26539;51.064;6.346;2023-02-07T14:04:46;19.23;;;8.90;;
5217;SDS011;26539;51.064;6.346;2023-02-07T14:07:26;10.07;;;7.30;;
5217;SDS011;26539;51.064;6.346;2023-02-07T14:09:55;11.33;;;8.00;;
5217;SDS011;26539;51.064;6.346;2023-02-07T14:12:24;10.43;;;8.33;;
5217;SDS011;26539;51.064;6.346;2023-02-07T14:14:53;9.37;;;7.37;;
5217;SDS011;26539;51.064;6.346;2023-02-07T14:19:51;7.80;;;6.63;;
5217;SDS011;26539;51.064;6.346;2023-02-07T14:27:28;11.20;;;7.40;;
5217;SDS011;26539;51.064;6.346;2023-02-07T14:32:42;10.60;;;7.00;;
5217;SDS011;26539;51.064;6.346;2023-02-07T14:35:28;12.53;;;6.67;;
5217;SDS011;26539;51.064;6.346;2023-02-07T14:38:08;10.33;;;6.80;;
5217;SDS011;26539;51.064;6.346;2023-02-07T14:51:16;14.20;;;6.70;;
5217;SDS011;26539;51.064;6.346;2023-02-07T14:53:45;8.93;;;6.10;;
5217;SDS011;26539;51.064;6.346;2023-02-07T14:56:49;8.40;;;6.40;;
5217;SDS011;26539;51.064;6.346;2023-02-07T14:59:35;11.50;;;6.73;;
5217;SDS011;26539;51.064;6.346;2023-02-07T15:07:38;13.73;;;7.27;;
5217;SDS011;26539;51.064;6.346;2023-02-07T15:10:21;8.60;;;6.67;;
5217;SDS011;26539;51.064;6.346;2023-02-07T15:12:50;10.30;;;7.07;;
5217;SDS011;26539;51.064;6.346;2023-02-07T15:15:18;12.43;;;7.40;;
5217;SDS011;26539;51.064;6.346;2023-02-07T15:17:51;9.07;;;5.73;;
5217;SDS011;26539;51.064;6.346;2023-02-07T15:20:19;8.07;;;6.37;;
5217;SDS011;26539;51.064;6.346;2023-02-07T15:23:02;12.30;;;7.20;;
5217;SDS011;26539;51.064;6.346;2023-02-07T15:25:28;11.87;;;6.97;;
5217;SDS011;26539;51.064;6.346;2023-02-07T15:27:59;9.30;;;5.40;;
5217;SDS011;26539;51.064;6.346;2023-02-07T15:30:30;12.10;;;6.40;;
5217;SDS011;26539;51.064;6.346;2023-02-07T15:32:56;10.67;;;5.80;;
5217;SDS011;26539;51.064;6.346;2023-02-07T15:35:24;16.10;;;7.13;;
5217;SDS011;26539;51.064;6.346;2023-02-07T15:37:51;7.70;;;5.90;;
5217;SDS011;26539;51.064;6.346;2023-02-07T15:40:19;8.30;;;5.83;;
5217;SDS011;26539;51.064;6.346;2023-02-07T15:42:56;11.90;;;5.80;;
5217;SDS011;26539;51.064;6.346;2023-02-07T15:45:23;8.33;;;5.97;;
5217;SDS011;26539;51.064;6.346;2023-02-07T15:47:58;10.03;;;6.33;;
5217;SDS011;26539;51.064;6.346;2023-02-07T15:50:26;11.27;;;6.10;;
5217;SDS011;26539;51.064;6.346;2023-02-07T15:52:57;6.93;;;5.90;;
5217;SDS011;26539;51.064;6.346;2023-02-07T15:55:32;8.97;;;6.60;;
5217;SDS011;26539;51.064;6.346;2023-02-07T15:58:07;9.23;;;6.47;;
5217;SDS011;26539;51.064;6.346;2023-02-07T16:01:02;9.50;;;5.47;;
5217;SDS011;26539;51.064;6.346;2023-02-07T16:03:40;9.30;;;6.60;;
5217;SDS011;26539;51.064;6.346;2023-02-07T16:08:38;10.80;;;5.90;;
5217;SDS011;26539;51.064;6.346;2023-02-07T16:14:08;10.20;;;6.73;;
5217;SDS011;26539;51.064;6.346;2023-02-07T16:16:51;13.40;;;6.00;;
5217;SDS011;26539;51.064;6.346;2023-02-07T16:19:24;18.13;;;6.57;;
5217;SDS011;26539;51.064;6.346;2023-02-07T16:22:01;12.20;;;7.27;;
5217;SDS011;26539;51.064;6.346;2023-02-07T16:24:36;17.40;;;8.35;;
5217;SDS011;26539;51.064;6.346;2023-02-07T16:27:05;12.57;;;7.88;;
5217;SDS011;26539;51.064;6.346;2023-02-07T16:29:32;10.48;;;6.60;;
5217;SDS011;26539;51.064;6.346;2023-02-07T16:31:59;12.70;;;6.47;;
5217;SDS011;26539;51.064;6.346;2023-02-07T16:34:25;22.53;;;7.33;;
5217;SDS011;26539;51.064;6.346;2023-02-07T16:36:51;16.73;;;7.23;;
5217;SDS011;26539;51.064;6.346;2023-02-07T16:39:18;12.10;;;7.15;;
5217;SDS011;26539;51.064;6.346;2023-02-07T16:41:55;10.23;;;6.13;;
5217;SDS011;26539;51.064;6.346;2023-02-07T16:44:32;11.55;;;6.05;;
5217;SDS011;26539;51.064;6.346;2023-02-07T16:47:03;11.20;;;6.38;;
5217;SDS011;26539;51.064;6.346;2023-02-07T16:49:30;18.53;;;6.37;;
5217;SDS011;26539;51.064;6.346;2023-02-07T16:51:59;11.80;;;6.70;;
5217;SDS011;26539;51.064;6.346;2023-02-07T16:54:24;11.27;;;6.30;;
5217;SDS011;26539;51.064;6.346;2023-02-07T16:56:54;13.30;;;6.63;;
5217;SDS011;26539;51.064;6.346;2023-02-07T16:59:22;13.07;;;6.57;;
5217;SDS011;26539;51.064;6.346;2023-02-07T17:01:48;10.80;;;6.27;;
5217;SDS011;26539;51.064;6.346;2023-02-07T17:04:18;14.85;;;7.18;;
5217;SDS011;26539;51.064;6.346;2023-02-07T17:06:50;38.53;;;7.55;;
5217;SDS011;26539;51.064;6.346;2023-02-07T17:09:25;16.63;;;7.53;;
5217;SDS011;26539;51.064;6.346;2023-02-07T17:11:51;26.77;;;8.73;;
5217;SDS011;26539;51.064;6.346;2023-02-07T17:14:18;17.90;;;8.32;;
5217;SDS011;26539;51.064;6.346;2023-02-07T17:16:43;39.13;;;14.27;;
5217;SDS011;26539;51.064;6.346;2023-02-07T17:19:13;16.40;;;10.30;;
5217;SDS011;26539;51.064;6.346;2023-02-07T17:21:44;22.55;;;11.38;;
5217;SDS011;26539;51.064;6.346;2023-02-07T17:24:13;25.95;;;9.48;;
5217;SDS011;26539;51.064;6.346;2023-02-07T17:26:40;17.42;;;8.88;;
5217;SDS011;26539;51.064;6.346;2023-02-07T17:29:14;15.07;;;8.40;;
5217;SDS011;26539;51.064;6.346;2023-02-07T17:31:41;19.95;;;8.55;;
5217;SDS011;26539;51.064;6.346;2023-02-07T17:34:09;16.60;;;7.70;;
5217;SDS011;26539;51.064;6.346;2023-02-07T17:36:35;11.57;;;8.00;;
5217;SDS011;26539;51.064;6.346;2023-02-07T17:39:01;16.63;;;7.82;;
5217;SDS011;26539;51.064;6.346;2023-02-07T17:41:27;17.25;;;9.05;;
5217;SDS011;26539;51.064;6.346;2023-02-07T17:43:53;17.30;;;8.60;;
5217;SDS011;26539;51.064;6.346;2023-02-07T17:46:19;11.50;;;7.10;;
5217;SDS011;26539;51.064;6.346;2023-02-07T17:48:49;21.67;;;10.25;;
5217;SDS011;26539;51.064;6.346;2023-02-07T17:51:17;22.50;;;13.60;;
5217;SDS011;26539;51.064;6.346;2023-02-07T17:53:44;23.58;;;10.55;;
5217;SDS011;26539;51.064;6.346;2023-02-07T17:56:18;24.27;;;13.40;;
5217;SDS011;26539;51.064;6.346;2023-02-07T17:58:44;23.85;;;10.98;;